Time;durP1;ratioP1;P1;durP2;ratioP2;P2;SDS_P1;SDS_P2;PMS_P1;PMS_P2;Temp;Humidity;BMP_temperature;BMP_pressure;BME280_temperature;BME280_humidity;BME280_pressure;Samples;Min_cycle;Max_cycle;Signal;HPM_P1;HPM_P2
2024/04/24 00:01:24;;;;;;;0.20;0.10;;;;;;;;;;5467839;26;19994;-79
2024/04/24 00:03:50;;;;;;;0.20;0.10;;;;;;;;;;5468849;26;20013;-80
2024/04/24 00:06:17;;;;;;;0.20;0.03;;;;;;;;;;5464151;26;20091;-79
2024/04/24 00:08:44;;;;;;;0.20;0.10;;;;;;;;;;5469274;26;20002;-80
2024/04/24 00:11:10;;;;;;;0.20;0.10;;;;;;;;;;5465707;26;20010;-81
2024/04/24 00:13:36;;;;;;;0.20;0.10;;;;;;;;;;5440872;26;20009;-82
2024/04/24 00:16:02;;;;;;;0.20;0.10;;;;;;;;;;5469830;26;20005;-81
2024/04/24 00:18:28;;;;;;;0.20;0.10;;;;;;;;;;5465358;26;20009;-79
2024/04/24 00:20:55;;;;;;;0.20;0.10;;;;;;;;;;5461849;26;20010;-83
2024/04/24 00:23:21;;;;;;;0.20;0.10;;;;;;;;;;5470208;26;20058;-83
2024/04/24 00:25:48;;;;;;;0.20;0.10;;;;;;;;;;5433609;26;20025;-83
2024/04/24 00:28:14;;;;;;;0.20;0.05;;;;;;;;;;5466533;26;20014;-82
2024/04/24 00:30:40;;;;;;;0.20;0.10;;;;;;;;;;5437875;26;20010;-81
2024/04/24 00:33:06;;;;;;;0.20;0.00;;;;;;;;;;5472440;26;19998;-80
2024/04/24 00:35:32;;;;;;;0.20;0.10;;;;;;;;;;5469976;26;20386;-80
2024/04/24 00:37:58;;;;;;;0.20;0.10;;;;;;;;;;5467845;26;20005;-79
2024/04/24 00:40:24;;;;;;;0.20;0.10;;;;;;;;;;5430892;26;19998;-79
2024/04/24 00:42:50;;;;;;;0.20;0.03;;;;;;;;;;5466171;26;19998;-78
2024/04/24 00:45:16;;;;;;;0.20;0.10;;;;;;;;;;5439827;26;20017;-80
2024/04/24 00:47:43;;;;;;;0.20;0.10;;;;;;;;;;5467308;26;20039;-78
2024/04/24 00:50:13;;;;;;;0.20;0.10;;;;;;;;;;5466785;26;20002;-78
2024/04/24 00:52:40;;;;;;;0.20;0.10;;;;;;;;;;5467270;26;20006;-79
2024/04/24 00:55:08;;;;;;;0.20;0.10;;;;;;;;;;5466015;26;20016;-79
2024/04/24 00:57:34;;;;;;;0.20;0.10;;;;;;;;;;5465705;26;20074;-78
2024/04/24 01:00:01;;;;;;;0.20;0.10;;;;;;;;;;5431503;26;20002;-78
2024/04/24 01:02:28;;;;;;;0.20;0.05;;;;;;;;;;5437786;26;20798;-80
2024/04/24 01:04:54;;;;;;;0.20;0.10;;;;;;;;;;5468644;26;20022;-77
2024/04/24 01:07:20;;;;;;;0.20;0.10;;;;;;;;;;5432451;26;20493;-79
2024/04/24 01:09:46;;;;;;;0.20;0.10;;;;;;;;;;5434214;26;20471;-77
2024/04/24 01:12:12;;;;;;;0.20;0.10;;;;;;;;;;5459671;26;19994;-77
2024/04/24 01:14:38;;;;;;;0.20;0.10;;;;;;;;;;5467199;26;20002;-79
2024/04/24 01:17:05;;;;;;;0.20;0.10;;;;;;;;;;5435401;26;19998;-76
2024/04/24 01:19:41;;;;;;;0.20;0.10;;;;;;;;;;5432078;26;19995;-76
2024/04/24 01:22:07;;;;;;;0.20;0.00;;;;;;;;;;5429137;26;20009;-78
2024/04/24 01:24:36;;;;;;;0.20;0.10;;;;;;;;;;5463994;26;20010;-77
2024/04/24 01:27:03;;;;;;;0.20;0.10;;;;;;;;;;5466361;26;20002;-78
2024/04/24 01:29:29;;;;;;;0.20;0.10;;;;;;;;;;5460119;26;20075;-78
2024/04/24 01:31:55;;;;;;;0.20;0.10;;;;;;;;;;5431536;26;20054;-77
2024/04/24 01:34:21;;;;;;;0.20;0.10;;;;;;;;;;5468158;26;20012;-77
2024/04/24 01:36:47;;;;;;;0.20;0.10;;;;;;;;;;5467573;26;20002;-77
2024/04/24 01:39:13;;;;;;;0.20;0.10;;;;;;;;;;5470546;26;20090;-78
2024/04/24 01:41:39;;;;;;;0.22;0.05;;;;;;;;;;5466806;26;20099;-76
2024/04/24 01:44:05;;;;;;;0.20;0.10;;;;;;;;;;5426554;26;20006;-76
2024/04/24 01:46:31;;;;;;;0.20;0.10;;;;;;;;;;5467104;26;20020;-81
2024/04/24 01:48:57;;;;;;;0.20;0.10;;;;;;;;;;5464511;26;20006;-78
2024/04/24 01:51:23;;;;;;;0.20;0.10;;;;;;;;;;5470913;26;20002;-78
2024/04/24 01:53:50;;;;;;;0.20;0.10;;;;;;;;;;5438279;26;20014;-78
2024/04/24 01:56:17;;;;;;;0.20;0.10;;;;;;;;;;5463710;26;20013;-78
2024/04/24 01:58:43;;;;;;;0.43;0.43;;;;;;;;;;5463022;26;20010;-79
2024/04/24 02:01:09;;;;;;;0.20;0.20;;;;;;;;;;5435734;26;20593;-80
2024/04/24 02:03:36;;;;;;;0.20;0.10;;;;;;;;;;5466130;26;19994;-80
2024/04/24 02:06:02;;;;;;;0.20;0.10;;;;;;;;;;5459404;26;20443;-82
2024/04/24 02:08:28;;;;;;;0.20;0.10;;;;;;;;;;5465608;26;20414;-80
2024/04/24 02:10:54;;;;;;;0.20;0.10;;;;;;;;;;5458983;26;19994;-80
2024/04/24 02:13:20;;;;;;;0.20;0.10;;;;;;;;;;5475391;26;20017;-80
2024/04/24 02:15:46;;;;;;;0.20;0.00;;;;;;;;;;5442445;26;20010;-82
2024/04/24 02:18:12;;;;;;;0.20;0.10;;;;;;;;;;5464419;26;19998;-77
2024/04/24 02:20:38;;;;;;;0.20;0.10;;;;;;;;;;5434819;26;20063;-80
2024/04/24 02:23:05;;;;;;;0.20;0.10;;;;;;;;;;5436761;26;20005;-79
2024/04/24 02:25:34;;;;;;;0.20;0.10;;;;;;;;;;5435415;26;20017;-78
2024/04/24 02:28:01;;;;;;;0.20;0.10;;;;;;;;;;5466424;26;19994;-78
2024/04/24 02:30:27;;;;;;;0.20;0.10;;;;;;;;;;5468391;26;19995;-79
2024/04/24 02:32:54;;;;;;;0.20;0.10;;;;;;;;;;5463994;26;20017;-79
2024/04/24 02:35:20;;;;;;;0.20;0.10;;;;;;;;;;5439197;26;20018;-80
2024/04/24 02:37:47;;;;;;;0.20;0.00;;;;;;;;;;5473006;26;20013;-84
2024/04/24 02:40:13;;;;;;;0.20;0.10;;;;;;;;;;5474759;26;20396;-78
2024/04/24 02:42:39;;;;;;;0.20;0.10;;;;;;;;;;5476337;26;20466;-79
2024/04/24 02:45:05;;;;;;;0.20;0.10;;;;;;;;;;5467641;26;20002;-79
2024/04/24 02:47:32;;;;;;;0.20;0.10;;;;;;;;;;5442771;26;20020;-78
2024/04/24 02:49:58;;;;;;;0.20;0.10;;;;;;;;;;5444197;26;20017;-77
2024/04/24 02:52:24;;;;;;;0.20;0.00;;;;;;;;;;5443523;26;20445;-80
2024/04/24 02:54:50;;;;;;;0.20;0.10;;;;;;;;;;5467913;26;20014;-79
2024/04/24 02:57:17;;;;;;;0.20;0.10;;;;;;;;;;5444194;26;20038;-77
2024/04/24 02:59:43;;;;;;;0.20;0.10;;;;;;;;;;5475908;26;20010;-79
2024/04/24 03:02:09;;;;;;;0.20;0.10;;;;;;;;;;5468898;26;20078;-78
2024/04/24 03:04:35;;;;;;;0.20;0.10;;;;;;;;;;5442139;26;19998;-79
2024/04/24 03:07:01;;;;;;;0.20;0.10;;;;;;;;;;5437834;26;20006;-80
2024/04/24 03:09:27;;;;;;;0.20;0.00;;;;;;;;;;5442509;26;19998;-77
2024/04/24 03:11:53;;;;;;;0.20;0.10;;;;;;;;;;5431748;26;20017;-80
2024/04/24 03:14:20;;;;;;;0.20;0.10;;;;;;;;;;5470656;26;20013;-81
2024/04/24 03:16:46;;;;;;;0.20;0.10;;;;;;;;;;5475918;26;20005;-78
2024/04/24 03:19:12;;;;;;;0.20;0.10;;;;;;;;;;5468614;26;19994;-81
2024/04/24 03:21:38;;;;;;;0.20;0.10;;;;;;;;;;5468254;26;20052;-80
2024/04/24 03:24:04;;;;;;;0.20;0.10;;;;;;;;;;5430827;26;20466;-79
2024/04/24 03:26:30;;;;;;;0.20;0.10;;;;;;;;;;5467223;26;20343;-81
2024/04/24 03:28:56;;;;;;;0.20;0.10;;;;;;;;;;5470717;26;20377;-81
2024/04/24 03:31:22;;;;;;;1.17;1.13;;;;;;;;;;5430462;26;20062;-79
2024/04/24 03:33:49;;;;;;;0.20;0.10;;;;;;;;;;5469255;26;20062;-78
2024/04/24 03:36:15;;;;;;;0.20;0.10;;;;;;;;;;5437000;26;19998;-78
2024/04/24 03:38:44;;;;;;;0.20;0.00;;;;;;;;;;5471225;26;19998;-78
2024/04/24 03:41:10;;;;;;;0.20;0.10;;;;;;;;;;5464706;26;20013;-77
2024/04/24 03:43:37;;;;;;;0.20;0.10;;;;;;;;;;5468123;26;20059;-78
2024/04/24 03:46:04;;;;;;;0.20;0.10;;;;;;;;;;5463906;26;20616;-79
2024/04/24 03:48:30;;;;;;;0.20;0.10;;;;;;;;;;5469145;26;20013;-78
2024/04/24 03:50:58;;;;;;;0.20;0.10;;;;;;;;;;5476491;26;20026;-82
2024/04/24 03:53:25;;;;;;;0.20;0.10;;;;;;;;;;5467950;26;20052;-82
2024/04/24 03:55:51;;;;;;;0.20;0.10;;;;;;;;;;5465688;26;20009;-81
2024/04/24 03:58:18;;;;;;;0.20;0.10;;;;;;;;;;5467261;26;20061;-78
2024/04/24 04:00:44;;;;;;;0.20;0.00;;;;;;;;;;5463733;26;20016;-80
2024/04/24 04:03:10;;;;;;;0.20;0.10;;;;;;;;;;5464955;26;20066;-79
2024/04/24 04:05:36;;;;;;;0.20;0.10;;;;;;;;;;5432275;26;20075;-81
2024/04/24 04:08:02;;;;;;;0.20;0.10;;;;;;;;;;5462579;26;22936;-82
2024/04/24 04:10:29;;;;;;;0.20;0.10;;;;;;;;;;5433172;26;20009;-82
2024/04/24 04:12:55;;;;;;;0.20;0.10;;;;;;;;;;5427507;26;20009;-79
2024/04/24 04:15:21;;;;;;;0.20;0.10;;;;;;;;;;5466046;26;20002;-81
2024/04/24 04:17:47;;;;;;;0.20;0.08;;;;;;;;;;5437507;26;20006;-78
2024/04/24 04:20:13;;;;;;;0.28;0.20;;;;;;;;;;5430195;26;20074;-80
2024/04/24 04:22:39;;;;;;;0.20;0.10;;;;;;;;;;5463203;26;20003;-80
2024/04/24 04:25:06;;;;;;;0.20;0.10;;;;;;;;;;5461858;26;20649;-81
2024/04/24 04:27:32;;;;;;;0.20;0.10;;;;;;;;;;5465642;26;20002;-80
2024/04/24 04:29:58;;;;;;;0.20;0.03;;;;;;;;;;5459876;26;20040;-78
2024/04/24 04:32:24;;;;;;;0.20;0.10;;;;;;;;;;5471156;26;20005;-80
2024/04/24 04:34:51;;;;;;;0.20;0.10;;;;;;;;;;5431496;26;20017;-80
2024/04/24 04:37:17;;;;;;;0.20;0.00;;;;;;;;;;5431676;26;20075;-80
2024/04/24 04:39:43;;;;;;;0.20;0.10;;;;;;;;;;5436068;26;20070;-82
2024/04/24 04:42:09;;;;;;;0.20;0.10;;;;;;;;;;5433449;26;20006;-83
2024/04/24 04:44:35;;;;;;;0.20;0.10;;;;;;;;;;5442072;26;22231;-83
2024/04/24 04:47:02;;;;;;;0.20;0.20;;;;;;;;;;5463872;26;19999;-83
2024/04/24 04:49:28;;;;;;;0.20;0.10;;;;;;;;;;5459502;26;20003;-82
2024/04/24 04:51:54;;;;;;;0.20;0.00;;;;;;;;;;5466687;26;19998;-82
2024/04/24 04:54:20;;;;;;;0.20;0.10;;;;;;;;;;5465303;26;20029;-80
2024/04/24 04:56:46;;;;;;;0.20;0.10;;;;;;;;;;5462537;26;20030;-79
2024/04/24 04:59:13;;;;;;;0.20;0.10;;;;;;;;;;5465375;26;20047;-80
2024/04/24 05:01:39;;;;;;;0.20;0.10;;;;;;;;;;5468072;26;20009;-82
2024/04/24 05:04:05;;;;;;;0.20;0.10;;;;;;;;;;5467236;26;21580;-80
2024/04/24 05:06:31;;;;;;;0.20;0.10;;;;;;;;;;5466118;26;20010;-80
2024/04/24 05:08:57;;;;;;;0.20;0.10;;;;;;;;;;5444846;21;20014;-80
2024/04/24 05:11:23;;;;;;;0.20;0.10;;;;;;;;;;5435254;26;20014;-82
2024/04/24 05:13:49;;;;;;;0.20;0.10;;;;;;;;;;5441571;26;20006;-79
2024/04/24 05:16:15;;;;;;;0.20;0.10;;;;;;;;;;5438810;26;20007;-79
2024/04/24 05:18:42;;;;;;;0.20;0.10;;;;;;;;;;5433200;26;20004;-81
2024/04/24 05:21:08;;;;;;;0.20;0.10;;;;;;;;;;5442005;26;20007;-82
2024/04/24 05:23:34;;;;;;;0.20;0.10;;;;;;;;;;5438891;26;20029;-83
2024/04/24 05:29:07;;;;;;;0.20;0.10;;;;;;;;;;5388379;26;20067;-83
2024/04/24 05:31:37;;;;;;;0.20;0.08;;;;;;;;;;5442133;26;20010;-82
2024/04/24 05:34:06;;;;;;;0.20;0.10;;;;;;;;;;5435961;26;20003;-84
2024/04/24 05:36:32;;;;;;;0.20;0.10;;;;;;;;;;5430859;26;20014;-85
2024/04/24 05:38:58;;;;;;;0.20;0.10;;;;;;;;;;5429343;26;20000;-85
2024/04/24 05:41:24;;;;;;;0.20;0.10;;;;;;;;;;5441734;26;20007;-83
2024/04/24 05:43:50;;;;;;;0.20;0.10;;;;;;;;;;5437044;26;19998;-84
2024/04/24 05:46:17;;;;;;;0.20;0.10;;;;;;;;;;5435396;26;20144;-82
2024/04/24 05:48:44;;;;;;;0.20;0.10;;;;;;;;;;5436977;26;19996;-84
2024/04/24 05:51:10;;;;;;;0.20;0.10;;;;;;;;;;5435304;26;20002;-83
2024/04/24 05:53:36;;;;;;;0.20;0.10;;;;;;;;;;5440458;26;20007;-82
2024/04/24 05:56:03;;;;;;;0.20;0.10;;;;;;;;;;5433361;26;20063;-82
2024/04/24 05:58:29;;;;;;;0.20;0.10;;;;;;;;;;5427621;26;19999;-82
2024/04/24 06:00:56;;;;;;;0.20;0.10;;;;;;;;;;5439531;26;19999;-83
2024/04/24 06:03:22;;;;;;;0.20;0.10;;;;;;;;;;5439182;26;20003;-84
2024/04/24 06:05:48;;;;;;;0.20;0.10;;;;;;;;;;5439661;26;20015;-82
2024/04/24 06:08:14;;;;;;;0.20;0.10;;;;;;;;;;5432439;26;19998;-81
2024/04/24 06:10:40;;;;;;;0.20;0.00;;;;;;;;;;5434209;26;20003;-81
2024/04/24 06:13:07;;;;;;;0.20;0.00;;;;;;;;;;5440166;26;20002;-82
2024/04/24 06:15:33;;;;;;;0.20;0.10;;;;;;;;;;5433145;26;19998;-81
2024/04/24 06:17:59;;;;;;;0.20;0.10;;;;;;;;;;5428104;26;20002;-81
2024/04/24 06:20:25;;;;;;;0.20;0.10;;;;;;;;;;5432986;26;20010;-82
2024/04/24 06:22:52;;;;;;;0.20;0.10;;;;;;;;;;5420039;26;20032;-82
2024/04/24 06:25:18;;;;;;;0.20;0.10;;;;;;;;;;5433719;26;20524;-81
2024/04/24 06:27:44;;;;;;;0.20;0.10;;;;;;;;;;5433516;26;19999;-83
2024/04/24 06:30:10;;;;;;;0.20;0.10;;;;;;;;;;5439720;26;20075;-81
2024/04/24 06:32:37;;;;;;;0.20;0.10;;;;;;;;;;5432090;26;20015;-82
2024/04/24 06:35:03;;;;;;;0.20;0.10;;;;;;;;;;5431736;26;20006;-81
2024/04/24 06:37:29;;;;;;;0.20;0.10;;;;;;;;;;5427184;26;20618;-81
2024/04/24 06:39:55;;;;;;;0.20;0.10;;;;;;;;;;5426847;26;20013;-81
2024/04/24 06:42:21;;;;;;;0.20;0.10;;;;;;;;;;5419837;26;20003;-81
2024/04/24 06:44:48;;;;;;;0.20;0.10;;;;;;;;;;5426896;26;19995;-82
2024/04/24 06:47:14;;;;;;;0.20;0.10;;;;;;;;;;5435099;26;20009;-82
2024/04/24 06:49:40;;;;;;;0.20;0.10;;;;;;;;;;5433695;26;20364;-82
2024/04/24 06:52:06;;;;;;;0.20;0.10;;;;;;;;;;5431121;26;20029;-82
2024/04/24 06:54:32;;;;;;;0.20;0.10;;;;;;;;;;5430973;26;20428;-81
2024/04/24 06:56:58;;;;;;;0.20;0.10;;;;;;;;;;5444170;26;20003;-83
2024/04/24 06:59:25;;;;;;;0.20;0.15;;;;;;;;;;5436453;26;19996;-81
2024/04/24 07:01:52;;;;;;;0.20;0.10;;;;;;;;;;5439269;26;20018;-81
2024/04/24 07:04:18;;;;;;;0.20;0.10;;;;;;;;;;5430455;26;19999;-80
2024/04/24 07:06:44;;;;;;;0.20;0.10;;;;;;;;;;5429231;26;20432;-82
2024/04/24 07:09:11;;;;;;;0.20;0.10;;;;;;;;;;5433060;26;20015;-81
2024/04/24 07:11:37;;;;;;;0.20;0.10;;;;;;;;;;5434459;26;20002;-82
2024/04/24 07:14:03;;;;;;;0.20;0.10;;;;;;;;;;5436556;26;20085;-84
2024/04/24 07:16:29;;;;;;;0.20;0.10;;;;;;;;;;5431312;26;20865;-83
2024/04/24 07:18:56;;;;;;;0.20;0.10;;;;;;;;;;5426451;26;20010;-84
2024/04/24 07:21:22;;;;;;;0.20;0.10;;;;;;;;;;5431442;26;20101;-81
2024/04/24 07:23:48;;;;;;;0.20;0.10;;;;;;;;;;5438201;26;19995;-83
2024/04/24 07:26:14;;;;;;;0.20;0.10;;;;;;;;;;5433854;26;20114;-84
2024/04/24 07:28:41;;;;;;;0.20;0.10;;;;;;;;;;5423358;26;20379;-81
2024/04/24 07:31:07;;;;;;;0.20;0.10;;;;;;;;;;5432778;26;20074;-81
2024/04/24 07:33:33;;;;;;;0.20;0.10;;;;;;;;;;5432710;26;20523;-82
2024/04/24 07:35:59;;;;;;;0.20;0.10;;;;;;;;;;5438470;26;20414;-84
2024/04/24 07:38:25;;;;;;;0.20;0.10;;;;;;;;;;5435235;26;20309;-85
2024/04/24 07:40:51;;;;;;;0.20;0.10;;;;;;;;;;5435836;26;20000;-84
2024/04/24 07:43:17;;;;;;;0.20;0.10;;;;;;;;;;5432540;26;20010;-86
2024/04/24 07:45:44;;;;;;;0.20;0.10;;;;;;;;;;5439109;26;20109;-85
2024/04/24 07:48:10;;;;;;;0.20;0.10;;;;;;;;;;5436694;26;20479;-85
2024/04/24 07:50:36;;;;;;;0.20;0.00;;;;;;;;;;5430555;26;20044;-82
2024/04/24 07:53:02;;;;;;;0.20;0.10;;;;;;;;;;5430949;26;20408;-82
2024/04/24 07:55:28;;;;;;;0.20;0.10;;;;;;;;;;5420366;26;20009;-82
2024/04/24 07:57:55;;;;;;;0.20;0.10;;;;;;;;;;5444453;26;19999;-84
2024/04/24 08:00:21;;;;;;;0.20;0.10;;;;;;;;;;5436947;26;20456;-84
2024/04/24 08:02:48;;;;;;;0.20;0.10;;;;;;;;;;5426019;26;20361;-84
2024/04/24 08:05:14;;;;;;;0.20;0.10;;;;;;;;;;5435233;26;20000;-82
2024/04/24 08:07:40;;;;;;;0.20;0.10;;;;;;;;;;5437123;26;20080;-83
2024/04/24 08:10:09;;;;;;;0.20;0.10;;;;;;;;;;5436555;26;20089;-83
2024/04/24 08:12:36;;;;;;;0.20;0.10;;;;;;;;;;5434130;26;20000;-82
2024/04/24 08:15:02;;;;;;;0.20;0.10;;;;;;;;;;5419818;26;20050;-82
2024/04/24 08:17:28;;;;;;;0.20;0.10;;;;;;;;;;5435443;26;20014;-84
2024/04/24 08:19:54;;;;;;;0.20;0.10;;;;;;;;;;5437571;26;20322;-83
2024/04/24 08:22:21;;;;;;;0.20;0.10;;;;;;;;;;5434731;26;20516;-83
2024/04/24 08:24:47;;;;;;;0.20;0.08;;;;;;;;;;5438717;26;20449;-82
2024/04/24 08:27:13;;;;;;;0.20;0.10;;;;;;;;;;5425372;26;19996;-80
2024/04/24 08:29:40;;;;;;;0.20;0.00;;;;;;;;;;5427939;26;19999;-82
2024/04/24 08:32:06;;;;;;;0.20;0.10;;;;;;;;;;5424092;26;20013;-81
2024/04/24 08:34:32;;;;;;;0.20;0.10;;;;;;;;;;5429221;26;20003;-79
2024/04/24 08:36:58;;;;;;;0.20;0.10;;;;;;;;;;5438238;26;20003;-81
2024/04/24 08:39:24;;;;;;;0.20;0.10;;;;;;;;;;5442968;26;19996;-82
2024/04/24 08:41:53;;;;;;;0.20;0.10;;;;;;;;;;5435056;26;20017;-81
2024/04/24 08:44:20;;;;;;;0.20;0.10;;;;;;;;;;5432470;26;20046;-82
2024/04/24 08:46:46;;;;;;;0.20;0.10;;;;;;;;;;5432633;26;20013;-85
2024/04/24 08:49:12;;;;;;;0.20;0.10;;;;;;;;;;5440063;26;20007;-84
2024/04/24 08:51:39;;;;;;;0.20;0.10;;;;;;;;;;5436204;26;20013;-83
2024/04/24 08:54:08;;;;;;;0.20;0.10;;;;;;;;;;5436251;26;20057;-81
2024/04/24 08:56:38;;;;;;;0.20;0.10;;;;;;;;;;5431049;26;20002;-84
2024/04/24 08:59:12;;;;;;;0.20;0.10;;;;;;;;;;5426066;26;19999;-85
2024/04/24 09:01:40;;;;;;;0.20;0.10;;;;;;;;;;5433858;26;20515;-84
2024/04/24 09:04:07;;;;;;;0.20;0.08;;;;;;;;;;5439066;26;20408;-82
2024/04/24 09:06:34;;;;;;;0.20;0.10;;;;;;;;;;5448726;26;20478;-82
2024/04/24 09:09:01;;;;;;;0.20;0.10;;;;;;;;;;5435670;26;20400;-84
2024/04/24 09:11:27;;;;;;;0.20;0.10;;;;;;;;;;5442157;26;20451;-82
2024/04/24 09:13:54;;;;;;;0.20;0.10;;;;;;;;;;5436139;26;20015;-83
2024/04/24 09:16:25;;;;;;;0.20;0.10;;;;;;;;;;5434442;26;19996;-83
2024/04/24 09:18:59;;;;;;;0.20;0.00;;;;;;;;;;5429461;26;20071;-84
2024/04/24 09:21:26;;;;;;;0.20;0.10;;;;;;;;;;5435629;26;19995;-84
2024/04/24 09:23:52;;;;;;;0.20;0.10;;;;;;;;;;5441910;26;20545;-84
2024/04/24 09:26:18;;;;;;;0.20;0.10;;;;;;;;;;5432073;26;20585;-83
2024/04/24 09:28:45;;;;;;;0.20;0.10;;;;;;;;;;5444171;26;19994;-84
2024/04/24 09:31:12;;;;;;;0.20;0.10;;;;;;;;;;5437376;26;20007;-82
2024/04/24 09:33:38;;;;;;;0.20;0.10;;;;;;;;;;5438408;26;20026;-84
2024/04/24 09:36:04;;;;;;;0.20;0.10;;;;;;;;;;5439357;26;20020;-82
2024/04/24 09:38:30;;;;;;;0.20;0.10;;;;;;;;;;5424773;26;20004;-81
2024/04/24 09:41:00;;;;;;;0.20;0.10;;;;;;;;;;5426195;26;20569;-83
2024/04/24 09:43:29;;;;;;;0.20;0.10;;;;;;;;;;5426527;26;19999;-84
2024/04/24 09:45:56;;;;;;;0.20;0.10;;;;;;;;;;5440429;26;20471;-83
2024/04/24 09:48:25;;;;;;;0.20;0.10;;;;;;;;;;5432001;26;20759;-83
2024/04/24 09:50:51;;;;;;;0.20;0.10;;;;;;;;;;5434320;26;19998;-84
2024/04/24 09:53:18;;;;;;;0.20;0.10;;;;;;;;;;5432308;26;20379;-82
2024/04/24 09:55:52;;;;;;;0.20;0.10;;;;;;;;;;5442444;26;20032;-83
2024/04/24 09:58:20;;;;;;;0.20;0.10;;;;;;;;;;5450399;26;19999;-82
2024/04/24 10:00:46;;;;;;;0.20;0.10;;;;;;;;;;5441630;26;19998;-81
2024/04/24 10:03:14;;;;;;;0.20;0.10;;;;;;;;;;5446846;26;19999;-82
2024/04/24 10:05:43;;;;;;;0.20;0.10;;;;;;;;;;5447412;26;20021;-83
2024/04/24 10:08:11;;;;;;;0.20;0.10;;;;;;;;;;5445976;26;20624;-84
2024/04/24 10:10:42;;;;;;;0.20;0.10;;;;;;;;;;5440550;26;19999;-84
2024/04/24 10:13:09;;;;;;;0.20;0.00;;;;;;;;;;5436540;26;20015;-82
2024/04/24 10:15:41;;;;;;;0.20;0.10;;;;;;;;;;5432819;26;20380;-85
2024/04/24 10:18:07;;;;;;;0.20;0.10;;;;;;;;;;5440640;26;20027;-82
2024/04/24 10:20:33;;;;;;;0.20;0.10;;;;;;;;;;5438762;26;20007;-82
2024/04/24 10:23:00;;;;;;;0.20;0.10;;;;;;;;;;5442110;26;20010;-84
2024/04/24 10:25:27;;;;;;;0.20;0.10;;;;;;;;;;5441462;26;20408;-84
2024/04/24 10:27:55;;;;;;;0.20;0.00;;;;;;;;;;5439939;26;20011;-82
2024/04/24 10:30:23;;;;;;;0.20;0.10;;;;;;;;;;5428053;26;20708;-83
2024/04/24 10:32:49;;;;;;;0.20;0.03;;;;;;;;;;5439869;26;20006;-83
2024/04/24 10:35:18;;;;;;;0.20;0.10;;;;;;;;;;5435879;26;20057;-81
2024/04/24 10:37:48;;;;;;;0.20;0.10;;;;;;;;;;5435741;26;19995;-83
2024/04/24 10:40:17;;;;;;;0.20;0.10;;;;;;;;;;5441228;26;20016;-84
2024/04/24 10:42:43;;;;;;;0.20;0.10;;;;;;;;;;5439550;26;20010;-82
2024/04/24 10:45:15;;;;;;;0.20;0.10;;;;;;;;;;5433311;26;20000;-83
2024/04/24 10:47:41;;;;;;;0.20;0.10;;;;;;;;;;5431310;26;20026;-84
2024/04/24 10:50:16;;;;;;;0.20;0.10;;;;;;;;;;5435267;26;20074;-82
2024/04/24 10:52:47;;;;;;;0.20;0.10;;;;;;;;;;5432964;26;20565;-83
2024/04/24 10:55:18;;;;;;;0.20;0.00;;;;;;;;;;5437584;26;20017;-82
2024/04/24 10:57:51;;;;;;;0.20;0.10;;;;;;;;;;5436240;26;20014;-85
2024/04/24 11:00:18;;;;;;;0.20;0.00;;;;;;;;;;5434278;26;20479;-85
2024/04/24 11:02:48;;;;;;;0.20;0.10;;;;;;;;;;5440483;26;20045;-84
2024/04/24 11:05:17;;;;;;;0.20;0.10;;;;;;;;;;5440631;26;20243;-83
2024/04/24 11:07:58;;;;;;;0.20;0.10;;;;;;;;;;5470719;21;20101;-82
2024/04/24 11:10:25;;;;;;;0.20;0.05;;;;;;;;;;5503166;26;20382;-81
2024/04/24 11:12:51;;;;;;;0.20;0.10;;;;;;;;;;5478942;26;20464;-78
2024/04/24 11:15:19;;;;;;;0.20;0.08;;;;;;;;;;5464760;26;20402;-83
2024/04/24 11:17:48;;;;;;;0.20;0.00;;;;;;;;;;5472055;26;20010;-80
2024/04/24 11:20:15;;;;;;;0.20;0.10;;;;;;;;;;5442427;26;20481;-79
2024/04/24 11:22:42;;;;;;;0.20;0.10;;;;;;;;;;5464440;26;20089;-81
2024/04/24 11:25:11;;;;;;;0.20;0.10;;;;;;;;;;5468249;26;19998;-79
2024/04/24 11:27:38;;;;;;;0.20;0.10;;;;;;;;;;5445203;26;20070;-83
2024/04/24 11:30:14;;;;;;;0.20;0.00;;;;;;;;;;5472325;26;20374;-83
2024/04/24 11:32:41;;;;;;;0.20;0.00;;;;;;;;;;5467380;26;20002;-82
2024/04/24 11:35:09;;;;;;;0.20;0.10;;;;;;;;;;5441732;26;20363;-82
2024/04/24 11:37:37;;;;;;;0.20;0.10;;;;;;;;;;5438800;26;20407;-81
2024/04/24 11:40:06;;;;;;;0.20;0.10;;;;;;;;;;5439508;26;20130;-83
2024/04/24 11:42:33;;;;;;;0.20;0.10;;;;;;;;;;5446813;26;20089;-81
2024/04/24 11:44:59;;;;;;;0.20;0.10;;;;;;;;;;5442960;26;20443;-80
2024/04/24 11:47:25;;;;;;;0.20;0.10;;;;;;;;;;5475378;26;20007;-81
2024/04/24 11:49:51;;;;;;;0.20;0.10;;;;;;;;;;5442945;26;20551;-82
2024/04/24 11:52:17;;;;;;;0.35;0.17;;;;;;;;;;5439444;26;20010;-84
2024/04/24 11:54:50;;;;;;;0.20;0.00;;;;;;;;;;5464315;26;19995;-81
2024/04/24 11:57:16;;;;;;;;;;;;;;;;;;5471207;26;20007;-83
2024/04/24 11:59:43;;;;;;;0.20;0.10;;;;;;;;;;5468012;26;19924;-81
2024/04/24 12:02:09;;;;;;;0.20;0.10;;;;;;;;;;5475818;26;20139;-82
2024/04/24 12:04:46;;;;;;;0.20;0.10;;;;;;;;;;5469095;26;20039;-82
2024/04/24 12:07:12;;;;;;;0.20;0.10;;;;;;;;;;5475809;26;20020;-82
2024/04/24 12:09:39;;;;;;;0.20;0.10;;;;;;;;;;5441750;26;20456;-82
2024/04/24 12:12:06;;;;;;;0.20;0.00;;;;;;;;;;5470603;26;20481;-85
2024/04/24 12:14:37;;;;;;;0.20;0.10;;;;;;;;;;5472691;26;20047;-81
2024/04/24 12:17:03;;;;;;;0.20;0.00;;;;;;;;;;5445183;26;20017;-82
2024/04/24 12:19:30;;;;;;;0.20;0.10;;;;;;;;;;5466384;26;20020;-81
2024/04/24 12:21:56;;;;;;;0.20;0.10;;;;;;;;;;5477486;26;20006;-82
2024/04/24 12:24:25;;;;;;;0.20;0.00;;;;;;;;;;5473544;26;20466;-80
2024/04/24 12:26:53;;;;;;;0.20;0.10;;;;;;;;;;5474795;26;20569;-83
2024/04/24 12:29:19;;;;;;;0.20;0.10;;;;;;;;;;5436034;26;20326;-80
2024/04/24 12:31:45;;;;;;;0.20;0.05;;;;;;;;;;5440809;26;20355;-79
2024/04/24 12:34:11;;;;;;;0.20;0.10;;;;;;;;;;5448381;26;20008;-84
2024/04/24 12:36:38;;;;;;;0.20;0.10;;;;;;;;;;5462342;26;20072;-80
2024/04/24 12:39:05;;;;;;;0.20;0.10;;;;;;;;;;5463937;26;19998;-80
2024/04/24 12:41:34;;;;;;;0.20;0.10;;;;;;;;;;5468294;26;20502;-79
2024/04/24 12:44:01;;;;;;;0.20;0.10;;;;;;;;;;5472481;26;20005;-83
2024/04/24 12:46:27;;;;;;;0.20;0.10;;;;;;;;;;5469719;26;20009;-82
2024/04/24 12:48:54;;;;;;;0.20;0.10;;;;;;;;;;5441818;26;20010;-79
2024/04/24 12:51:20;;;;;;;0.20;0.10;;;;;;;;;;5429777;26;20355;-80
2024/04/24 12:53:46;;;;;;;0.20;0.00;;;;;;;;;;5474212;26;19998;-80
2024/04/24 12:56:13;;;;;;;0.20;0.10;;;;;;;;;;5442388;26;20528;-78
2024/04/24 12:58:39;;;;;;;0.20;0.10;;;;;;;;;;5441649;26;20008;-80
2024/04/24 13:01:05;;;;;;;0.20;0.05;;;;;;;;;;5466810;26;20009;-80
2024/04/24 13:03:31;;;;;;;0.20;0.10;;;;;;;;;;5436357;26;20528;-79
2024/04/24 13:05:58;;;;;;;0.20;0.10;;;;;;;;;;5476592;26;20002;-80
2024/04/24 13:08:24;;;;;;;0.20;0.10;;;;;;;;;;5474116;26;19999;-81
2024/04/24 13:10:52;;;;;;;0.20;0.10;;;;;;;;;;5430645;26;20049;-81
2024/04/24 13:13:19;;;;;;;0.20;0.10;;;;;;;;;;5466176;26;20049;-82
2024/04/24 13:15:45;;;;;;;0.20;0.00;;;;;;;;;;5467199;26;22013;-79
2024/04/24 13:18:15;;;;;;;0.20;0.10;;;;;;;;;;5463484;26;20029;-82
2024/04/24 13:20:41;;;;;;;0.20;0.03;;;;;;;;;;5474707;26;20293;-80
2024/04/24 13:23:07;;;;;;;0.20;0.10;;;;;;;;;;5439326;26;20109;-85
2024/04/24 13:25:33;;;;;;;0.20;0.00;;;;;;;;;;5465484;26;19995;-84
2024/04/24 13:28:01;;;;;;;0.20;0.10;;;;;;;;;;5436737;26;20006;-82
2024/04/24 13:30:27;;;;;;;0.20;0.10;;;;;;;;;;5462544;26;20070;-81
2024/04/24 13:32:53;;;;;;;0.20;0.10;;;;;;;;;;5432180;26;20047;-83
2024/04/24 13:35:19;;;;;;;0.20;0.10;;;;;;;;;;5429145;26;20013;-80
2024/04/24 13:37:45;;;;;;;0.20;0.10;;;;;;;;;;5433116;26;20087;-82
2024/04/24 13:40:12;;;;;;;0.20;0.10;;;;;;;;;;5465487;26;20031;-78
2024/04/24 13:42:38;;;;;;;0.20;0.10;;;;;;;;;;5427511;26;20017;-81
2024/04/24 13:45:04;;;;;;;0.20;0.10;;;;;;;;;;5466207;26;20069;-82
2024/04/24 13:47:30;;;;;;;0.20;0.10;;;;;;;;;;5465687;26;20010;-82
2024/04/24 13:49:56;;;;;;;0.20;0.10;;;;;;;;;;5472120;26;19998;-86
2024/04/24 13:52:24;;;;;;;0.20;0.10;;;;;;;;;;5424772;26;20318;-79
2024/04/24 13:54:50;;;;;;;0.20;0.10;;;;;;;;;;5461391;26;20082;-79
2024/04/24 13:57:16;;;;;;;0.20;0.10;;;;;;;;;;5437622;26;19998;-79
2024/04/24 13:59:42;;;;;;;0.20;0.10;;;;;;;;;;5466205;26;20087;-78
2024/04/24 14:02:09;;;;;;;0.20;0.10;;;;;;;;;;5462198;26;19995;-83
2024/04/24 14:04:35;;;;;;;0.20;0.10;;;;;;;;;;5442612;26;20012;-80
2024/04/24 14:07:02;;;;;;;0.20;0.10;;;;;;;;;;5459943;26;20370;-82
2024/04/24 14:09:28;;;;;;;0.20;0.10;;;;;;;;;;5476989;26;20478;-83
2024/04/24 14:11:54;;;;;;;0.20;0.10;;;;;;;;;;5439341;26;20486;-80
2024/04/24 14:14:20;;;;;;;0.20;0.10;;;;;;;;;;5428833;26;19998;-81
2024/04/24 14:16:46;;;;;;;0.20;0.10;;;;;;;;;;5430344;26;20017;-79
2024/04/24 14:19:13;;;;;;;0.20;0.00;;;;;;;;;;5452232;26;20107;-80
2024/04/24 14:21:39;;;;;;;0.20;0.10;;;;;;;;;;5462111;26;20006;-82
2024/04/24 14:24:05;;;;;;;0.20;0.05;;;;;;;;;;5461449;26;19994;-84
2024/04/24 14:26:31;;;;;;;0.20;0.10;;;;;;;;;;5440509;26;20010;-82
2024/04/24 14:28:57;;;;;;;0.32;0.15;;;;;;;;;;5467013;26;19994;-82
2024/04/24 14:31:23;;;;;;;0.40;0.22;;;;;;;;;;5428644;26;20073;-81
2024/04/24 14:33:49;;;;;;;0.20;0.10;;;;;;;;;;5456550;26;20017;-81
2024/04/24 14:36:16;;;;;;;0.20;0.10;;;;;;;;;;5443635;26;19998;-79
2024/04/24 14:38:43;;;;;;;0.20;0.10;;;;;;;;;;5437186;26;20102;-81
2024/04/24 14:41:12;;;;;;;0.20;0.03;;;;;;;;;;5467038;26;20014;-80
2024/04/24 14:43:41;;;;;;;0.20;0.10;;;;;;;;;;5469165;26;19998;-81